sensor_id;sensor_type;location;lat;lon;timestamp;pressure;altitude;pressure_sealevel;temperature;humidity
46690;BME280;32423;45.398;10.874;2023-07-13T00:01:21;100676.09;;;29.37;48.65
46690;BME280;32423;45.398;10.874;2023-07-13T00:04:08;100596.97;;;29.33;48.69
46690;BME280;32423;45.398;10.874;2023-07-13T00:06:53;100558.59;;;29.30;48.09
46690;BME280;32423;45.398;10.874;2023-07-13T00:09:38;100534.75;;;29.25;47.32
46690;BME280;32423;45.398;10.874;2023-07-13T00:15:19;100491.56;;;28.98;47.29
46690;BME280;32423;45.398;10.874;2023-07-13T00:18:07;100466.25;;;28.88;47.45
46690;BME280;32423;45.398;10.874;2023-07-13T00:20:51;100444.75;;;28.85;47.50
46690;BME280;32423;45.398;10.874;2023-07-13T00:23:38;100415.75;;;28.79;47.01
46690;BME280;32423;45.398;10.874;2023-07-13T00:26:23;100404.78;;;28.85;47.82
46690;BME280;32423;45.398;10.874;2023-07-13T00:29:08;100389.31;;;28.80;47.37
46690;BME280;32423;45.398;10.874;2023-07-13T00:31:54;100386.50;;;28.80;47.55
46690;BME280;32423;45.398;10.874;2023-07-13T00:34:39;100385.84;;;28.89;48.39
46690;BME280;32423;45.398;10.874;2023-07-13T00:37:24;100381.34;;;28.91;48.37
46690;BME280;32423;45.398;10.874;2023-07-13T00:40:11;100378.25;;;28.89;48.58
46690;BME280;32423;45.398;10.874;2023-07-13T00:42:59;100372.84;;;28.82;47.61
46690;BME280;32423;45.398;10.874;2023-07-13T00:48:32;100384.06;;;28.82;48.90
46690;BME280;32423;45.398;10.874;2023-07-13T00:51:27;100386.41;;;28.84;48.86
46690;BME280;32423;45.398;10.874;2023-07-13T00:54:25;100382.47;;;28.81;49.07
46690;BME280;32423;45.398;10.874;2023-07-13T00:57:17;100386.06;;;28.82;49.38
46690;BME280;32423;45.398;10.874;2023-07-13T01:00:05;100386.06;;;28.82;49.56
46690;BME280;32423;45.398;10.874;2023-07-13T01:02:51;100396.16;;;28.79;49.62
46690;BME280;32423;45.398;10.874;2023-07-13T01:05:36;100407.00;;;28.77;50.05
46690;BME280;32423;45.398;10.874;2023-07-13T01:08:22;100413.94;;;28.73;50.14
46690;BME280;32423;45.398;10.874;2023-07-13T01:11:07;100413.84;;;28.76;50.15
46690;BME280;32423;45.398;10.874;2023-07-13T01:13:52;100423.13;;;28.73;49.78
46690;BME280;32423;45.398;10.874;2023-07-13T01:16:40;100431.53;;;28.73;49.92
46690;BME280;32423;45.398;10.874;2023-07-13T01:19:39;100436.34;;;28.73;49.99
46690;BME280;32423;45.398;10.874;2023-07-13T01:22:24;100428.81;;;28.70;50.09
46690;BME280;32423;45.398;10.874;2023-07-13T01:25:10;100437.66;;;28.68;50.04
46690;BME280;32423;45.398;10.874;2023-07-13T01:27:55;100439.31;;;28.66;50.40
46690;BME280;32423;45.398;10.874;2023-07-13T01:30:40;100432.16;;;28.65;50.45
46690;BME280;32423;45.398;10.874;2023-07-13T01:33:25;100444.25;;;28.62;50.58
46690;BME280;32423;45.398;10.874;2023-07-13T01:36:11;100438.31;;;28.60;49.97
46690;BME280;32423;45.398;10.874;2023-07-13T01:38:56;100446.25;;;28.61;50.36
46690;BME280;32423;45.398;10.874;2023-07-13T01:41:41;100436.06;;;28.55;49.97
46690;BME280;32423;45.398;10.874;2023-07-13T01:44:26;100444.91;;;28.53;50.48
46690;BME280;32423;45.398;10.874;2023-07-13T01:47:11;100450.50;;;28.53;50.77
46690;BME280;32423;45.398;10.874;2023-07-13T01:49:56;100448.56;;;28.37;49.24
46690;BME280;32423;45.398;10.874;2023-07-13T01:52:41;100446.56;;;28.38;49.83
46690;BME280;32423;45.398;10.874;2023-07-13T01:55:26;100453.47;;;28.33;49.16
46690;BME280;32423;45.398;10.874;2023-07-13T01:58:11;100441.81;;;28.35;49.76
46690;BME280;32423;45.398;10.874;2023-07-13T02:00:57;100456.72;;;28.32;49.42
46690;BME280;32423;45.398;10.874;2023-07-13T02:03:42;100457.78;;;28.22;49.16
46690;BME280;32423;45.398;10.874;2023-07-13T02:06:27;100458.16;;;28.24;49.56
46690;BME280;32423;45.398;10.874;2023-07-13T02:09:12;100462.41;;;28.28;50.26
46690;BME280;32423;45.398;10.874;2023-07-13T02:11:56;100467.28;;;28.24;50.08
46690;BME280;32423;45.398;10.874;2023-07-13T02:14:41;100469.41;;;28.20;49.68
46690;BME280;32423;45.398;10.874;2023-07-13T02:17:26;100468.72;;;28.16;49.34
46690;BME280;32423;45.398;10.874;2023-07-13T02:20:11;100462.06;;;28.10;49.74
46690;BME280;32423;45.398;10.874;2023-07-13T02:22:55;100464.53;;;28.08;49.58
46690;BME280;32423;45.398;10.874;2023-07-13T02:25:40;100474.84;;;28.11;50.04
46690;BME280;32423;45.398;10.874;2023-07-13T02:28:26;100475.22;;;28.13;50.28
46690;BME280;32423;45.398;10.874;2023-07-13T02:31:13;100484.72;;;28.16;50.38
46690;BME280;32423;45.398;10.874;2023-07-13T02:33:58;100471.69;;;28.09;50.09
46690;BME280;32423;45.398;10.874;2023-07-13T02:36:43;100475.78;;;28.04;49.70
46690;BME280;32423;45.398;10.874;2023-07-13T02:39:28;100478.94;;;28.06;50.02
46690;BME280;32423;45.398;10.874;2023-07-13T02:42:14;100486.97;;;28.04;50.41
46690;BME280;32423;45.398;10.874;2023-07-13T02:44:58;100490.56;;;28.05;50.60
46690;BME280;32423;45.398;10.874;2023-07-13T02:47:43;100489.44;;;28.02;50.27
46690;BME280;32423;45.398;10.874;2023-07-13T02:50:29;100493.56;;;27.98;50.22
46690;BME280;32423;45.398;10.874;2023-07-13T02:53:14;100503.06;;;28.00;50.72
46690;BME280;32423;45.398;10.874;2023-07-13T02:55:59;100491.56;;;27.98;50.82
46690;BME280;32423;45.398;10.874;2023-07-13T02:58:44;100509.56;;;27.97;50.94
46690;BME280;32423;45.398;10.874;2023-07-13T03:01:29;100515.16;;;27.97;50.93
46690;BME280;32423;45.398;10.874;2023-07-13T03:04:13;100505.72;;;27.91;50.89
46690;BME280;32423;45.398;10.874;2023-07-13T03:06:58;100508.09;;;27.93;50.69
46690;BME280;32423;45.398;10.874;2023-07-13T03:09:48;100512.88;;;27.92;50.90
46690;BME280;32423;45.398;10.874;2023-07-13T03:12:34;100511.84;;;27.86;50.75
46690;BME280;32423;45.398;10.874;2023-07-13T03:15:22;100525.38;;;27.88;50.31
46690;BME280;32423;45.398;10.874;2023-07-13T03:18:08;100527.03;;;27.85;50.21
46690;BME280;32423;45.398;10.874;2023-07-13T03:20:53;100526.69;;;27.83;50.11
46690;BME280;32423;45.398;10.874;2023-07-13T03:23:38;100533.50;;;27.82;50.07
46690;BME280;32423;45.398;10.874;2023-07-13T03:26:23;100537.94;;;27.80;50.27
46690;BME280;32423;45.398;10.874;2023-07-13T03:29:08;100542.84;;;27.76;50.33
46690;BME280;32423;45.398;10.874;2023-07-13T03:31:53;100545.28;;;27.74;49.99
46690;BME280;32423;45.398;10.874;2023-07-13T03:34:40;100546.06;;;27.74;50.13
46690;BME280;32423;45.398;10.874;2023-07-13T03:37:25;100548.16;;;27.70;50.22
46690;BME280;32423;45.398;10.874;2023-07-13T03:40:10;100551.91;;;27.63;49.91
46690;BME280;32423;45.398;10.874;2023-07-13T03:42:55;100558.38;;;27.60;49.83
46690;BME280;32423;45.398;10.874;2023-07-13T03:45:41;100558.22;;;27.51;50.14
46690;BME280;32423;45.398;10.874;2023-07-13T03:48:25;100555.84;;;27.50;50.31
46690;BME280;32423;45.398;10.874;2023-07-13T03:51:12;100554.69;;;27.47;50.47
46690;BME280;32423;45.398;10.874;2023-07-13T03:53:59;100570.00;;;27.39;50.33
46690;BME280;32423;45.398;10.874;2023-07-13T03:56:44;100562.50;;;27.36;50.44
46690;BME280;32423;45.398;10.874;2023-07-13T03:59:28;100560.50;;;27.37;50.33
46690;BME280;32423;45.398;10.874;2023-07-13T04:02:13;100566.44;;;27.39;50.11
46690;BME280;32423;45.398;10.874;2023-07-13T04:04:58;100565.22;;;24.46;57.21
46690;BME280;32423;45.398;10.874;2023-07-13T04:07:43;100544.44;;;24.58;59.07
46690;BME280;32423;45.398;10.874;2023-07-13T04:10:28;100548.97;;;23.49;61.35
46690;BME280;32423;45.398;10.874;2023-07-13T04:13:14;100558.41;;;22.78;64.58
46690;BME280;32423;45.398;10.874;2023-07-13T04:15:59;100553.59;;;22.96;64.47
46690;BME280;32423;45.398;10.874;2023-07-13T04:18:45;100561.50;;;23.71;62.46
46690;BME280;32423;45.398;10.874;2023-07-13T04:21:31;100563.47;;;24.63;59.60
46690;BME280;32423;45.398;10.874;2023-07-13T04:24:15;100553.25;;;24.49;59.19
46690;BME280;32423;45.398;10.874;2023-07-13T04:27:01;100560.84;;;24.83;58.37
46690;BME280;32423;45.398;10.874;2023-07-13T04:29:48;100565.19;;;24.50;58.89
46690;BME280;32423;45.398;10.874;2023-07-13T04:32:33;100560.22;;;24.31;60.53
46690;BME280;32423;45.398;10.874;2023-07-13T04:35:20;100573.09;;;22.61;65.50
46690;BME280;32423;45.398;10.874;2023-07-13T04:38:05;100568.56;;;23.13;64.64
46690;BME280;32423;45.398;10.874;2023-07-13T04:40:51;100568.97;;;23.77;63.23
46690;BME280;32423;45.398;10.874;2023-07-13T04:43:36;100568.06;;;24.39;60.72
46690;BME280;32423;45.398;10.874;2023-07-13T04:46:21;100570.44;;;24.78;59.24
46690;BME280;32423;45.398;10.874;2023-07-13T04:49:06;100580.25;;;24.90;58.88
46690;BME280;32423;45.398;10.874;2023-07-13T04:51:52;100585.13;;;25.12;58.06
46690;BME280;32423;45.398;10.874;2023-07-13T04:54:37;100592.72;;;24.75;58.63
46690;BME280;32423;45.398;10.874;2023-07-13T04:57:23;100581.47;;;24.89;58.99
46690;BME280;32423;45.398;10.874;2023-07-13T05:00:08;100584.28;;;24.82;59.86
46690;BME280;32423;45.398;10.874;2023-07-13T05:02:55;100592.88;;;25.28;58.30
46690;BME280;32423;45.398;10.874;2023-07-13T05:05:40;100596.66;;;25.41;57.58
46690;BME280;32423;45.398;10.874;2023-07-13T05:08:26;100601.72;;;25.50;57.09
46690;BME280;32423;45.398;10.874;2023-07-13T05:11:11;100591.47;;;25.43;56.64
46690;BME280;32423;45.398;10.874;2023-07-13T05:13:56;100597.97;;;25.64;57.11
46690;BME280;32423;45.398;10.874;2023-07-13T05:16:41;100595.53;;;25.92;56.15
46690;BME280;32423;45.398;10.874;2023-07-13T05:19:26;100595.06;;;25.97;56.83
46690;BME280;32423;45.398;10.874;2023-07-13T05:22:11;100594.75;;;25.92;57.44
46690;BME280;32423;45.398;10.874;2023-07-13T05:24:57;100596.31;;;25.93;57.56
46690;BME280;32423;45.398;10.874;2023-07-13T05:27:41;100588.84;;;25.86;56.95
46690;BME280;32423;45.398;10.874;2023-07-13T05:30:26;100602.31;;;25.91;56.27
46690;BME280;32423;45.398;10.874;2023-07-13T05:33:12;100595.97;;;26.14;55.91
46690;BME280;32423;45.398;10.874;2023-07-13T05:35:56;100603.03;;;26.22;56.55
46690;BME280;32423;45.398;10.874;2023-07-13T05:38:42;100594.47;;;26.56;56.10
46690;BME280;32423;45.398;10.874;2023-07-13T05:41:26;100603.31;;;26.28;55.24
46690;BME280;32423;45.398;10.874;2023-07-13T05:44:12;100606.19;;;26.24;54.88
46690;BME280;32423;45.398;10.874;2023-07-13T05:46:56;100606.19;;;26.24;54.20
46690;BME280;32423;45.398;10.874;2023-07-13T05:49:41;100600.22;;;26.22;54.33
46690;BME280;32423;45.398;10.874;2023-07-13T05:52:26;100596.63;;;25.98;53.88
46690;BME280;32423;45.398;10.874;2023-07-13T05:55:11;100598.69;;;25.94;54.47
46690;BME280;32423;45.398;10.874;2023-07-13T05:57:57;100584.16;;;26.07;53.97
46690;BME280;32423;45.398;10.874;2023-07-13T06:00:42;100568.16;;;25.61;54.90
46690;BME280;32423;45.398;10.874;2023-07-13T06:03:27;100569.53;;;25.49;54.91
46690;BME280;32423;45.398;10.874;2023-07-13T06:06:13;100579.22;;;25.68;54.54
46690;BME280;32423;45.398;10.874;2023-07-13T06:08:58;100597.91;;;25.94;54.19
46690;BME280;32423;45.398;10.874;2023-07-13T06:11:43;100600.50;;;25.51;55.84
46690;BME280;32423;45.398;10.874;2023-07-13T06:14:28;100619.78;;;25.38;56.63
46690;BME280;32423;45.398;10.874;2023-07-13T06:17:13;100602.34;;;25.34;56.97
46690;BME280;32423;45.398;10.874;2023-07-13T06:19:58;100597.69;;;25.54;56.12
46690;BME280;32423;45.398;10.874;2023-07-13T06:22:43;100604.47;;;25.53;56.50
46690;BME280;32423;45.398;10.874;2023-07-13T06:25:28;100577.63;;;25.67;55.30
46690;BME280;32423;45.398;10.874;2023-07-13T06:28:13;100569.78;;;25.85;55.58
46690;BME280;32423;45.398;10.874;2023-07-13T06:30:58;100591.22;;;25.88;55.08
46690;BME280;32423;45.398;10.874;2023-07-13T06:33:43;100588.50;;;26.08;55.29
46690;BME280;32423;45.398;10.874;2023-07-13T06:36:28;100568.59;;;26.09;55.60
46690;BME280;32423;45.398;10.874;2023-07-13T06:39:14;100563.19;;;25.98;55.81
46690;BME280;32423;45.398;10.874;2023-07-13T06:41:59;100568.94;;;26.11;55.73
46690;BME280;32423;45.398;10.874;2023-07-13T06:44:43;100583.75;;;26.31;55.50
46690;BME280;32423;45.398;10.874;2023-07-13T06:47:28;100605.31;;;26.27;55.23
46690;BME280;32423;45.398;10.874;2023-07-13T06:50:13;100616.16;;;25.98;56.20
46690;BME280;32423;45.398;10.874;2023-07-13T06:52:58;100636.31;;;26.06;56.27
46690;BME280;32423;45.398;10.874;2023-07-13T06:55:44;100629.69;;;26.23;56.58
46690;BME280;32423;45.398;10.874;2023-07-13T06:58:30;100619.47;;;26.13;55.80
46690;BME280;32423;45.398;10.874;2023-07-13T07:01:15;100611.78;;;25.97;55.76
46690;BME280;32423;45.398;10.874;2023-07-13T07:04:00;100618.50;;;26.00;56.09
46690;BME280;32423;45.398;10.874;2023-07-13T07:06:45;100631.59;;;26.03;55.76
46690;BME280;32423;45.398;10.874;2023-07-13T07:09:31;100626.97;;;25.93;56.94
46690;BME280;32423;45.398;10.874;2023-07-13T07:12:16;100636.44;;;25.99;55.85
46690;BME280;32423;45.398;10.874;2023-07-13T07:15:01;100644.06;;;26.22;55.38
46690;BME280;32423;45.398;10.874;2023-07-13T07:17:46;100641.31;;;26.18;55.48
46690;BME280;32423;45.398;10.874;2023-07-13T07:20:31;100616.97;;;26.22;54.84
46690;BME280;32423;45.398;10.874;2023-07-13T07:23:17;100614.28;;;26.38;54.93
46690;BME280;32423;45.398;10.874;2023-07-13T07:26:03;100614.81;;;26.53;54.15
46690;BME280;32423;45.398;10.874;2023-07-13T07:28:48;100608.06;;;26.74;54.10
46690;BME280;32423;45.398;10.874;2023-07-13T07:31:33;100613.16;;;26.99;53.06
46690;BME280;32423;45.398;10.874;2023-07-13T07:34:18;100630.50;;;27.10;53.50
46690;BME280;32423;45.398;10.874;2023-07-13T07:37:03;100640.03;;;27.32;52.47
46690;BME280;32423;45.398;10.874;2023-07-13T07:39:48;100633.88;;;27.21;51.65
46690;BME280;32423;45.398;10.874;2023-07-13T07:42:33;100636.25;;;27.39;51.91
46690;BME280;32423;45.398;10.874;2023-07-13T07:45:19;100649.53;;;27.15;52.77
46690;BME280;32423;45.398;10.874;2023-07-13T07:48:04;100652.59;;;27.40;52.11
46690;BME280;32423;45.398;10.874;2023-07-13T07:50:49;100650.47;;;27.48;51.54
46690;BME280;32423;45.398;10.874;2023-07-13T07:53:35;100650.31;;;27.55;51.65
46690;BME280;32423;45.398;10.874;2023-07-13T07:56:20;100639.84;;;27.59;51.72
46690;BME280;32423;45.398;10.874;2023-07-13T07:59:05;100643.00;;;27.61;51.24
46690;BME280;32423;45.398;10.874;2023-07-13T08:01:50;100642.13;;;27.64;51.28
46690;BME280;32423;45.398;10.874;2023-07-13T08:04:35;100649.28;;;27.65;51.42
46690;BME280;32423;45.398;10.874;2023-07-13T08:07:20;100640.91;;;27.65;51.34
46690;BME280;32423;45.398;10.874;2023-07-13T08:10:09;100636.38;;;27.71;50.83
46690;BME280;32423;45.398;10.874;2023-07-13T08:12:54;100607.56;;;27.74;50.91
46690;BME280;32423;45.398;10.874;2023-07-13T08:15:39;100610.88;;;27.69;51.23
46690;BME280;32423;45.398;10.874;2023-07-13T08:18:24;100609.31;;;27.68;51.18
46690;BME280;32423;45.398;10.874;2023-07-13T08:21:09;100602.53;;;27.49;51.98
46690;BME280;32423;45.398;10.874;2023-07-13T08:23:55;100601.34;;;27.31;52.46
46690;BME280;32423;45.398;10.874;2023-07-13T08:26:40;100591.47;;;27.26;52.23
46690;BME280;32423;45.398;10.874;2023-07-13T08:29:25;100599.19;;;27.18;52.81
46690;BME280;32423;45.398;10.874;2023-07-13T08:32:10;100596.28;;;27.06;53.29
46690;BME280;32423;45.398;10.874;2023-07-13T08:34:55;100610.66;;;27.04;52.86
46690;BME280;32423;45.398;10.874;2023-07-13T08:37:40;100594.72;;;27.05;52.06
46690;BME280;32423;45.398;10.874;2023-07-13T08:40:27;100568.94;;;26.97;52.43
46690;BME280;32423;45.398;10.874;2023-07-13T08:43:23;100597.75;;;26.71;53.37
46690;BME280;32423;45.398;10.874;2023-07-13T08:46:21;100631.34;;;26.44;53.57
46690;BME280;32423;45.398;10.874;2023-07-13T08:49:16;100646.63;;;26.09;54.52
46690;BME280;32423;45.398;10.874;2023-07-13T08:52:12;100642.66;;;25.83;55.22
46690;BME280;32423;45.398;10.874;2023-07-13T08:55:12;100636.63;;;26.12;55.39
46690;BME280;32423;45.398;10.874;2023-07-13T08:58:15;100642.44;;;26.24;53.57
46690;BME280;32423;45.398;10.874;2023-07-13T09:04:20;100653.38;;;25.85;55.70
46690;BME280;32423;45.398;10.874;2023-07-13T09:07:34;100649.44;;;26.32;53.83
46690;BME280;32423;45.398;10.874;2023-07-13T09:10:23;100639.44;;;26.58;52.46
46690;BME280;32423;45.398;10.874;2023-07-13T09:13:27;100626.78;;;26.54;53.44
46690;BME280;32423;45.398;10.874;2023-07-13T09:16:15;100620.81;;;26.75;53.82
46690;BME280;32423;45.398;10.874;2023-07-13T09:19:04;100614.84;;;26.96;54.18
46690;BME280;32423;45.398;10.874;2023-07-13T09:21:54;100625.34;;;27.08;53.91
46690;BME280;32423;45.398;10.874;2023-07-13T09:25:11;100643.97;;;27.15;53.69
46690;BME280;32423;45.398;10.874;2023-07-13T09:28:12;100624.91;;;27.30;53.73
46690;BME280;32423;45.398;10.874;2023-07-13T09:31:30;100626.94;;;27.45;53.18
46690;BME280;32423;45.398;10.874;2023-07-13T09:34:18;100625.47;;;27.41;53.11
46690;BME280;32423;45.398;10.874;2023-07-13T09:37:03;100622.66;;;27.41;52.85
46690;BME280;32423;45.398;10.874;2023-07-13T09:39:49;100634.50;;;27.09;52.68
46690;BME280;32423;45.398;10.874;2023-07-13T09:42:34;100628.47;;;26.48;52.88
46690;BME280;32423;45.398;10.874;2023-07-13T09:45:28;100638.78;;;26.27;55.98
46690;BME280;32423;45.398;10.874;2023-07-13T09:48:15;100635.63;;;26.49;53.55
46690;BME280;32423;45.398;10.874;2023-07-13T09:51:13;100646.88;;;26.88;55.02
46690;BME280;32423;45.398;10.874;2023-07-13T09:53:58;100640.22;;;26.59;55.42
46690;BME280;32423;45.398;10.874;2023-07-13T09:56:43;100645.50;;;26.53;52.63
46690;BME280;32423;45.398;10.874;2023-07-13T09:59:34;100648.53;;;27.05;54.13
46690;BME280;32423;45.398;10.874;2023-07-13T10:02:34;100645.66;;;27.09;52.17
46690;BME280;32423;45.398;10.874;2023-07-13T10:05:19;100629.56;;;27.16;52.06
46690;BME280;32423;45.398;10.874;2023-07-13T10:08:18;100616.22;;;27.24;51.20
46690;BME280;32423;45.398;10.874;2023-07-13T10:11:14;100628.09;;;27.48;50.40
46690;BME280;32423;45.398;10.874;2023-07-13T10:14:09;100626.94;;;27.65;52.69
46690;BME280;32423;45.398;10.874;2023-07-13T10:17:00;100637.16;;;27.72;51.80
46690;BME280;32423;45.398;10.874;2023-07-13T10:19:47;100654.09;;;27.64;49.40
46690;BME280;32423;45.398;10.874;2023-07-13T10:25:39;100649.59;;;27.51;49.43
46690;BME280;32423;45.398;10.874;2023-07-13T10:28:27;100644.31;;;27.56;49.53
46690;BME280;32423;45.398;10.874;2023-07-13T10:31:14;100639.72;;;27.82;48.54
46690;BME280;32423;45.398;10.874;2023-07-13T10:34:00;100656.38;;;27.70;50.07
46690;BME280;32423;45.398;10.874;2023-07-13T10:36:47;100655.50;;;27.73;50.48
46690;BME280;32423;45.398;10.874;2023-07-13T10:39:33;100649.50;;;27.90;51.33
46690;BME280;32423;45.398;10.874;2023-07-13T10:42:27;100653.59;;;27.86;51.16
46690;BME280;32423;45.398;10.874;2023-07-13T10:45:14;100662.97;;;27.95;50.96
46690;BME280;32423;45.398;10.874;2023-07-13T10:47:59;100654.84;;;28.01;50.57
46690;BME280;32423;45.398;10.874;2023-07-13T10:50:46;100649.09;;;28.08;50.07
46690;BME280;32423;45.398;10.874;2023-07-13T10:53:35;100649.81;;;28.12;50.53
46690;BME280;32423;45.398;10.874;2023-07-13T10:56:29;100648.19;;;27.95;49.73
46690;BME280;32423;45.398;10.874;2023-07-13T10:59:23;100641.09;;;27.74;50.52
46690;BME280;32423;45.398;10.874;2023-07-13T11:02:27;100629.94;;;27.90;51.16
46690;BME280;32423;45.398;10.874;2023-07-13T11:05:31;100611.06;;;27.78;50.58
46690;BME280;32423;45.398;10.874;2023-07-13T11:08:32;100613.69;;;27.85;52.04
46690;BME280;32423;45.398;10.874;2023-07-13T11:14:37;100609.75;;;27.99;50.10
46690;BME280;32423;45.398;10.874;2023-07-13T11:26:00;100596.66;;;28.28;49.75
46690;BME280;32423;45.398;10.874;2023-07-13T11:28:49;100602.31;;;28.41;50.15
46690;BME280;32423;45.398;10.874;2023-07-13T11:31:34;100602.00;;;28.39;50.76
46690;BME280;32423;45.398;10.874;2023-07-13T11:34:38;100592.84;;;28.51;49.14
46690;BME280;32423;45.398;10.874;2023-07-13T11:37:23;100593.34;;;28.62;49.32
46690;BME280;32423;45.398;10.874;2023-07-13T11:40:13;100587.94;;;28.55;49.97
46690;BME280;32423;45.398;10.874;2023-07-13T11:43:00;100598.19;;;28.45;50.16
46690;BME280;32423;45.398;10.874;2023-07-13T11:45:45;100578.00;;;28.54;49.92
46690;BME280;32423;45.398;10.874;2023-07-13T11:48:30;100574.50;;;28.50;49.68
46690;BME280;32423;45.398;10.874;2023-07-13T11:54:22;100570.00;;;28.69;48.65
46690;BME280;32423;45.398;10.874;2023-07-13T11:57:27;100576.03;;;28.67;49.23
46690;BME280;32423;45.398;10.874;2023-07-13T12:00:17;100564.19;;;29.05;48.00
46690;BME280;32423;45.398;10.874;2023-07-13T12:03:03;100564.63;;;29.16;45.75
46690;BME280;32423;45.398;10.874;2023-07-13T12:05:57;100557.56;;;29.11;46.50
46690;BME280;32423;45.398;10.874;2023-07-13T12:08:42;100555.63;;;28.96;46.56
46690;BME280;32423;45.398;10.874;2023-07-13T12:11:27;100550.03;;;28.96;46.29
46690;BME280;32423;45.398;10.874;2023-07-13T12:14:16;100558.47;;;29.08;46.27
46690;BME280;32423;45.398;10.874;2023-07-13T12:17:09;100558.00;;;28.97;47.33
46690;BME280;32423;45.398;10.874;2023-07-13T12:19:55;100563.16;;;28.99;47.11
46690;BME280;32423;45.398;10.874;2023-07-13T12:22:45;100549.81;;;29.03;47.07
46690;BME280;32423;45.398;10.874;2023-07-13T12:25:30;100549.34;;;28.91;46.44
46690;BME280;32423;45.398;10.874;2023-07-13T12:31:35;100536.72;;;29.12;46.92
46690;BME280;32423;45.398;10.874;2023-07-13T12:34:22;100540.66;;;29.15;46.93
46690;BME280;32423;45.398;10.874;2023-07-13T12:37:11;100550.06;;;29.21;46.97
46690;BME280;32423;45.398;10.874;2023-07-13T12:39:56;100549.94;;;29.12;47.15
46690;BME280;32423;45.398;10.874;2023-07-13T12:42:41;100545.75;;;29.32;46.38
46690;BME280;32423;45.398;10.874;2023-07-13T12:45:27;100535.09;;;29.40;46.28
46690;BME280;32423;45.398;10.874;2023-07-13T12:48:20;100525.56;;;29.50;45.15
46690;BME280;32423;45.398;10.874;2023-07-13T12:51:10;100533.28;;;29.46;46.34
46690;BME280;32423;45.398;10.874;2023-07-13T12:54:19;100524.66;;;29.15;47.23
46690;BME280;32423;45.398;10.874;2023-07-13T12:57:04;100518.47;;;29.08;46.90
46690;BME280;32423;45.398;10.874;2023-07-13T12:59:52;100521.38;;;29.17;47.51
46690;BME280;32423;45.398;10.874;2023-07-13T13:02:37;100521.50;;;29.13;46.84
46690;BME280;32423;45.398;10.874;2023-07-13T13:05:22;100518.59;;;29.17;47.44
46690;BME280;32423;45.398;10.874;2023-07-13T13:08:11;100529.22;;;29.22;47.41
46690;BME280;32423;45.398;10.874;2023-07-13T13:10:56;100517.94;;;29.51;46.76
46690;BME280;32423;45.398;10.874;2023-07-13T13:13:40;100522.44;;;29.61;46.24
46690;BME280;32423;45.398;10.874;2023-07-13T13:16:33;100515.25;;;29.47;46.71
46690;BME280;32423;45.398;10.874;2023-07-13T13:19:23;100520.53;;;29.32;47.31
46690;BME280;32423;45.398;10.874;2023-07-13T13:22:08;100518.25;;;29.15;47.29
46690;BME280;32423;45.398;10.874;2023-07-13T13:24:52;100524.19;;;29.29;46.62
46690;BME280;32423;45.398;10.874;2023-07-13T13:27:37;100514.78;;;29.36;47.42
46690;BME280;32423;45.398;10.874;2023-07-13T13:30:22;100517.34;;;29.18;47.89
46690;BME280;32423;45.398;10.874;2023-07-13T13:33:10;100518.94;;;29.19;47.87
46690;BME280;32423;45.398;10.874;2023-07-13T13:35:56;100528.44;;;29.09;49.54
46690;BME280;32423;45.398;10.874;2023-07-13T13:38:41;100529.00;;;29.04;48.05
46690;BME280;32423;45.398;10.874;2023-07-13T13:41:26;100535.81;;;29.03;49.29
46690;BME280;32423;45.398;10.874;2023-07-13T13:44:12;100541.09;;;29.13;49.00
46690;BME280;32423;45.398;10.874;2023-07-13T13:46:57;100548.72;;;29.13;48.93
46690;BME280;32423;45.398;10.874;2023-07-13T13:49:42;100546.28;;;29.15;46.88
46690;BME280;32423;45.398;10.874;2023-07-13T13:52:27;100534.47;;;29.07;48.77
46690;BME280;32423;45.398;10.874;2023-07-13T13:55:21;100533.81;;;29.03;49.47
46690;BME280;32423;45.398;10.874;2023-07-13T13:58:09;100535.94;;;28.99;49.67
46690;BME280;32423;45.398;10.874;2023-07-13T14:00:54;100539.19;;;28.98;49.21
46690;BME280;32423;45.398;10.874;2023-07-13T14:03:39;100545.81;;;29.04;48.02
46690;BME280;32423;45.398;10.874;2023-07-13T14:06:24;100539.41;;;29.03;47.87
46690;BME280;32423;45.398;10.874;2023-07-13T14:09:14;100532.47;;;28.95;48.31
46690;BME280;32423;45.398;10.874;2023-07-13T14:11:59;100530.22;;;28.90;48.92
46690;BME280;32423;45.398;10.874;2023-07-13T14:14:44;100537.47;;;28.87;50.11
46690;BME280;32423;45.398;10.874;2023-07-13T14:17:29;100535.47;;;28.88;49.93
46690;BME280;32423;45.398;10.874;2023-07-13T14:20:14;100532.78;;;28.97;49.03
46690;BME280;32423;45.398;10.874;2023-07-13T14:23:00;100547.00;;;28.90;49.56
46690;BME280;32423;45.398;10.874;2023-07-13T14:25:46;100555.06;;;28.88;49.20
46690;BME280;32423;45.398;10.874;2023-07-13T14:28:31;100561.66;;;28.65;50.59
46690;BME280;32423;45.398;10.874;2023-07-13T14:31:17;100557.88;;;28.59;51.79
46690;BME280;32423;45.398;10.874;2023-07-13T14:34:02;100553.06;;;28.60;52.81
46690;BME280;32423;45.398;10.874;2023-07-13T14:36:48;100557.50;;;28.57;53.12
46690;BME280;32423;45.398;10.874;2023-07-13T14:39:33;100554.34;;;28.55;53.40
46690;BME280;32423;45.398;10.874;2023-07-13T14:42:18;100553.13;;;28.56;52.88
46690;BME280;32423;45.398;10.874;2023-07-13T14:45:03;100555.75;;;28.63;52.56
46690;BME280;32423;45.398;10.874;2023-07-13T14:47:48;100559.78;;;28.62;52.16
46690;BME280;32423;45.398;10.874;2023-07-13T14:50:33;100562.56;;;28.62;51.72
46690;BME280;32423;45.398;10.874;2023-07-13T14:53:19;100570.19;;;28.62;52.92